sensor_id;sensor_type;location;lat;lon;timestamp;pressure;altitude;pressure_sealevel;temperature;humidity
68712;BME280;55690;51.566;19.198;2023-03-03T00:02:30;102069.82;;;6.85;75.03
68712;BME280;55690;51.566;19.198;2023-03-03T00:06:37;102059.25;;;7.26;74.16
68712;BME280;55690;51.566;19.198;2023-03-03T00:10:43;102062.38;;;7.37;73.92
68712;BME280;55690;51.566;19.198;2023-03-03T00:14:49;102056.18;;;7.35;73.94
68712;BME280;55690;51.566;19.198;2023-03-03T00:18:55;102057.14;;;6.87;75.07
68712;BME280;55690;51.566;19.198;2023-03-03T00:31:35;102042.39;;;7.19;73.98
68712;BME280;55690;51.566;19.198;2023-03-03T00:35:36;102022.14;;;7.08;73.19
68712;BME280;55690;51.566;19.198;2023-03-03T00:39:39;102036.06;;;6.74;73.52
68712;BME280;55690;51.566;19.198;2023-03-03T00:43:40;102028.70;;;7.00;73.02
68712;BME280;55690;51.566;19.198;2023-03-03T00:47:42;102026.91;;;6.78;73.41
68712;BME280;55690;51.566;19.198;2023-03-03T00:51:45;102006.66;;;6.89;72.62
68712;BME280;55690;51.566;19.198;2023-03-03T00:55:52;102012.51;;;7.00;73.16
68712;BME280;55690;51.566;19.198;2023-03-03T00:59:57;102007.86;;;7.04;72.41
68712;BME280;55690;51.566;19.198;2023-03-03T01:04:03;102001.41;;;7.08;72.66
68712;BME280;55690;51.566;19.198;2023-03-03T01:08:10;101993.80;;;6.73;73.33
68712;BME280;55690;51.566;19.198;2023-03-03T01:12:16;101988.83;;;6.85;73.00
68712;BME280;55690;51.566;19.198;2023-03-03T01:16:22;101991.84;;;6.53;72.52
68712;BME280;55690;51.566;19.198;2023-03-03T01:20:28;102002.73;;;6.02;74.39
68712;BME280;55690;51.566;19.198;2023-03-03T01:24:34;101990.08;;;6.98;72.23
68712;BME280;55690;51.566;19.198;2023-03-03T01:28:40;101994.24;;;7.07;71.65
68712;BME280;55690;51.566;19.198;2023-03-03T01:32:47;101994.99;;;6.89;71.76
68712;BME280;55690;51.566;19.198;2023-03-03T01:36:53;101982.77;;;7.24;71.01
68712;BME280;55690;51.566;19.198;2023-03-03T01:40:59;101982.13;;;7.39;70.37
68712;BME280;55690;51.566;19.198;2023-03-03T01:49:29;101984.72;;;7.20;70.94
68712;BME280;55690;51.566;19.198;2023-03-03T01:53:39;101978.85;;;7.75;69.26
68712;BME280;55690;51.566;19.198;2023-03-03T01:57:47;101976.29;;;7.50;69.86
68712;BME280;55690;51.566;19.198;2023-03-03T02:01:52;101985.88;;;6.68;71.67
68712;BME280;55690;51.566;19.198;2023-03-03T02:05:58;101984.36;;;6.84;71.73
68712;BME280;55690;51.566;19.198;2023-03-03T02:14:12;101984.28;;;6.14;73.21
68712;BME280;55690;51.566;19.198;2023-03-03T02:18:16;101987.39;;;6.04;73.55
68712;BME280;55690;51.566;19.198;2023-03-03T02:22:26;101988.36;;;6.26;73.83
68712;BME280;55690;51.566;19.198;2023-03-03T02:26:31;101988.17;;;6.79;72.11
68712;BME280;55690;51.566;19.198;2023-03-03T02:30:37;101992.73;;;6.53;72.50
68712;BME280;55690;51.566;19.198;2023-03-03T02:34:51;101976.41;;;7.47;70.38
68712;BME280;55690;51.566;19.198;2023-03-03T02:39:02;101971.10;;;6.78;71.72
68712;BME280;55690;51.566;19.198;2023-03-03T02:43:05;101958.52;;;7.22;70.87
68712;BME280;55690;51.566;19.198;2023-03-03T02:47:08;101951.16;;;7.48;70.74
68712;BME280;55690;51.566;19.198;2023-03-03T02:51:10;101941.34;;;7.45;69.84
68712;BME280;55690;51.566;19.198;2023-03-03T02:55:11;101952.40;;;6.95;70.98
68712;BME280;55690;51.566;19.198;2023-03-03T02:59:13;101950.91;;;7.10;71.01
68712;BME280;55690;51.566;19.198;2023-03-03T03:03:15;101961.31;;;6.97;71.30
68712;BME280;55690;51.566;19.198;2023-03-03T03:07:16;101951.96;;;6.61;71.92
68712;BME280;55690;51.566;19.198;2023-03-03T03:11:18;101953.43;;;7.15;70.96
68712;BME280;55690;51.566;19.198;2023-03-03T03:15:21;101959.08;;;7.09;70.97
68712;BME280;55690;51.566;19.198;2023-03-03T03:19:27;101965.16;;;7.14;70.58
68712;BME280;55690;51.566;19.198;2023-03-03T03:23:34;101975.19;;;6.65;71.48
68712;BME280;55690;51.566;19.198;2023-03-03T03:27:40;101968.69;;;6.71;71.75
68712;BME280;55690;51.566;19.198;2023-03-03T03:31:46;101961.52;;;6.93;71.26
68712;BME280;55690;51.566;19.198;2023-03-03T03:35:52;101968.00;;;7.11;70.44
68712;BME280;55690;51.566;19.198;2023-03-03T03:39:58;101955.32;;;7.34;69.78
68712;BME280;55690;51.566;19.198;2023-03-03T03:44:04;101953.61;;;6.88;71.04
68712;BME280;55690;51.566;19.198;2023-03-03T03:48:11;101967.88;;;6.92;71.06
68712;BME280;55690;51.566;19.198;2023-03-03T03:52:17;101982.44;;;7.10;70.82
68712;BME280;55690;51.566;19.198;2023-03-03T03:56:23;101972.50;;;6.42;72.50
68712;BME280;55690;51.566;19.198;2023-03-03T04:00:30;101976.08;;;6.42;73.14
68712;BME280;55690;51.566;19.198;2023-03-03T04:04:35;101991.23;;;6.21;74.04
68712;BME280;55690;51.566;19.198;2023-03-03T04:08:42;101989.08;;;6.31;73.17
68712;BME280;55690;51.566;19.198;2023-03-03T04:12:48;101983.08;;;6.48;73.09
68712;BME280;55690;51.566;19.198;2023-03-03T04:16:54;101970.03;;;6.59;73.37
68712;BME280;55690;51.566;19.198;2023-03-03T04:21:00;101958.63;;;6.51;73.15
68712;BME280;55690;51.566;19.198;2023-03-03T04:25:07;101948.03;;;6.93;72.32
68712;BME280;55690;51.566;19.198;2023-03-03T04:29:12;101958.41;;;6.57;73.27
68712;BME280;55690;51.566;19.198;2023-03-03T04:33:19;101956.89;;;6.73;73.23
68712;BME280;55690;51.566;19.198;2023-03-03T04:37:25;101954.66;;;6.84;72.71
68712;BME280;55690;51.566;19.198;2023-03-03T04:41:31;101925.75;;;6.41;74.11
68712;BME280;55690;51.566;19.198;2023-03-03T04:45:37;101942.76;;;6.66;73.82
68712;BME280;55690;51.566;19.198;2023-03-03T04:49:43;101920.69;;;6.79;73.55
68712;BME280;55690;51.566;19.198;2023-03-03T04:53:50;101943.65;;;6.44;74.24
68712;BME280;55690;51.566;19.198;2023-03-03T04:57:56;101940.78;;;6.48;74.06
68712;BME280;55690;51.566;19.198;2023-03-03T05:02:03;101940.02;;;6.20;74.52
68712;BME280;55690;51.566;19.198;2023-03-03T05:06:08;101951.70;;;6.20;75.40
68712;BME280;55690;51.566;19.198;2023-03-03T05:10:14;101920.07;;;6.49;74.74
68712;BME280;55690;51.566;19.198;2023-03-03T05:14:20;101919.92;;;6.52;74.61
68712;BME280;55690;51.566;19.198;2023-03-03T05:18:27;101943.65;;;6.44;74.92
68712;BME280;55690;51.566;19.198;2023-03-03T05:22:33;101951.42;;;6.51;74.71
68712;BME280;55690;51.566;19.198;2023-03-03T05:26:40;101949.77;;;6.24;75.10
68712;BME280;55690;51.566;19.198;2023-03-03T05:30:45;101963.77;;;5.84;76.28
68712;BME280;55690;51.566;19.198;2023-03-03T05:34:51;101953.78;;;6.37;74.76
68712;BME280;55690;51.566;19.198;2023-03-03T05:38:58;101960.62;;;6.22;74.96
68712;BME280;55690;51.566;19.198;2023-03-03T05:43:04;101960.33;;;5.54;76.93
68712;BME280;55690;51.566;19.198;2023-03-03T05:47:10;101971.39;;;5.18;77.82
68712;BME280;55690;51.566;19.198;2023-03-03T05:51:16;101982.18;;;5.45;77.06
68712;BME280;55690;51.566;19.198;2023-03-03T05:55:23;101979.34;;;5.49;76.66
68712;BME280;55690;51.566;19.198;2023-03-03T05:59:29;101978.93;;;5.61;76.51
68712;BME280;55690;51.566;19.198;2023-03-03T06:03:35;101994.73;;;5.46;76.52
68712;BME280;55690;51.566;19.198;2023-03-03T06:07:41;102007.36;;;5.44;76.04
68712;BME280;55690;51.566;19.198;2023-03-03T06:11:47;102005.66;;;5.13;76.61
68712;BME280;55690;51.566;19.198;2023-03-03T06:15:53;102002.80;;;5.46;75.65
68712;BME280;55690;51.566;19.198;2023-03-03T06:19:59;101993.74;;;5.48;75.75
68712;BME280;55690;51.566;19.198;2023-03-03T06:24:06;101994.47;;;5.53;75.72
68712;BME280;55690;51.566;19.198;2023-03-03T06:28:13;102010.53;;;5.28;76.12
68712;BME280;55690;51.566;19.198;2023-03-03T06:32:18;101995.74;;;5.68;75.46
68712;BME280;55690;51.566;19.198;2023-03-03T06:36:24;101999.07;;;5.22;77.11
68712;BME280;55690;51.566;19.198;2023-03-03T06:40:30;101997.91;;;5.58;75.82
68712;BME280;55690;51.566;19.198;2023-03-03T06:44:37;101977.13;;;5.62;75.64
68712;BME280;55690;51.566;19.198;2023-03-03T06:48:43;101973.06;;;5.49;75.84
68712;BME280;55690;51.566;19.198;2023-03-03T06:57:13;101999.13;;;5.75;75.70
68712;BME280;55690;51.566;19.198;2023-03-03T07:01:15;101999.07;;;4.94;77.05
68712;BME280;55690;51.566;19.198;2023-03-03T07:05:17;101995.51;;;5.49;76.50
68712;BME280;55690;51.566;19.198;2023-03-03T07:09:24;102009.61;;;5.01;77.20
68712;BME280;55690;51.566;19.198;2023-03-03T07:13:28;102009.14;;;5.17;76.63
68712;BME280;55690;51.566;19.198;2023-03-03T07:17:30;102011.76;;;5.73;75.30
68712;BME280;55690;51.566;19.198;2023-03-03T07:21:35;101994.32;;;5.58;75.45
68712;BME280;55690;51.566;19.198;2023-03-03T07:25:39;101984.78;;;5.48;75.03
68712;BME280;55690;51.566;19.198;2023-03-03T07:29:50;101985.95;;;5.65;75.07
68712;BME280;55690;51.566;19.198;2023-03-03T07:33:53;101990.36;;;5.68;74.89
68712;BME280;55690;51.566;19.198;2023-03-03T07:37:58;101983.16;;;5.68;74.79
68712;BME280;55690;51.566;19.198;2023-03-03T07:50:33;102009.89;;;5.20;76.78
68712;BME280;55690;51.566;19.198;2023-03-03T07:58:35;101997.36;;;5.47;76.06
68712;BME280;55690;51.566;19.198;2023-03-03T08:09:58;102006.52;;;4.24;81.86
68712;BME280;55690;51.566;19.198;2023-03-03T08:14:00;101985.76;;;4.60;80.64
68712;BME280;55690;51.566;19.198;2023-03-03T08:18:18;101977.30;;;5.01;79.39
68712;BME280;55690;51.566;19.198;2023-03-03T08:22:32;101983.80;;;4.94;79.30
68712;BME280;55690;51.566;19.198;2023-03-03T08:26:36;101994.66;;;4.91;79.60
68712;BME280;55690;51.566;19.198;2023-03-03T08:30:38;101990.43;;;5.12;79.48
68712;BME280;55690;51.566;19.198;2023-03-03T08:34:39;102001.29;;;4.80;80.50
68712;BME280;55690;51.566;19.198;2023-03-03T08:38:40;102002.25;;;4.77;80.70
68712;BME280;55690;51.566;19.198;2023-03-03T08:42:43;102003.61;;;4.92;80.22
68712;BME280;55690;51.566;19.198;2023-03-03T08:46:50;102008.82;;;5.26;79.80
68712;BME280;55690;51.566;19.198;2023-03-03T08:50:56;102002.66;;;5.50;79.72
68712;BME280;55690;51.566;19.198;2023-03-03T08:55:02;102000.26;;;5.41;78.45
68712;BME280;55690;51.566;19.198;2023-03-03T08:59:09;102013.13;;;5.86;78.01
68712;BME280;55690;51.566;19.198;2023-03-03T09:03:14;102012.12;;;5.90;78.04
68712;BME280;55690;51.566;19.198;2023-03-03T09:07:21;102013.17;;;5.84;78.25
68712;BME280;55690;51.566;19.198;2023-03-03T09:11:28;102012.71;;;5.72;78.75
68712;BME280;55690;51.566;19.198;2023-03-03T09:15:35;102021.47;;;5.52;79.58
68712;BME280;55690;51.566;19.198;2023-03-03T09:19:39;102019.07;;;5.69;78.76
68712;BME280;55690;51.566;19.198;2023-03-03T09:23:53;102021.91;;;5.92;78.24
68712;BME280;55690;51.566;19.198;2023-03-03T09:27:56;102018.67;;;6.08;77.58
68712;BME280;55690;51.566;19.198;2023-03-03T09:32:45;102019.47;;;6.36;77.67
68712;BME280;55690;51.566;19.198;2023-03-03T09:36:25;102024.23;;;6.53;77.38
68712;BME280;55690;51.566;19.198;2023-03-03T09:40:38;102018.46;;;6.14;77.96
68712;BME280;55690;51.566;19.198;2023-03-03T10:23:06;102014.20;;;6.56;78.62
68712;BME280;55690;51.566;19.198;2023-03-03T10:27:58;102005.15;;;6.34;78.57
68712;BME280;55690;51.566;19.198;2023-03-03T10:32:17;101998.43;;;6.46;78.47
68712;BME280;55690;51.566;19.198;2023-03-03T10:36:43;102002.55;;;6.79;77.11
68712;BME280;55690;51.566;19.198;2023-03-03T10:40:49;101997.98;;;6.81;77.18
68712;BME280;55690;51.566;19.198;2023-03-03T11:06:17;101982.52;;;6.38;78.28
68712;BME280;55690;51.566;19.198;2023-03-03T11:48:42;101956.07;;;7.16;76.12
68712;BME280;55690;51.566;19.198;2023-03-03T12:13:57;101952.55;;;6.69;77.16
68712;BME280;55690;51.566;19.198;2023-03-03T12:18:13;101956.99;;;6.23;78.02
68712;BME280;55690;51.566;19.198;2023-03-03T12:26:39;101960.40;;;6.52;77.79
68712;BME280;55690;51.566;19.198;2023-03-03T12:35:09;101946.45;;;6.41;77.54
68712;BME280;55690;51.566;19.198;2023-03-03T12:43:37;101961.88;;;6.12;78.41
68712;BME280;55690;51.566;19.198;2023-03-03T12:56:17;101952.96;;;6.35;77.63
68712;BME280;55690;51.566;19.198;2023-03-03T13:00:31;101952.63;;;6.44;77.71
68712;BME280;55690;51.566;19.198;2023-03-03T13:04:38;101956.26;;;6.43;77.63
68712;BME280;55690;51.566;19.198;2023-03-03T13:08:53;101960.39;;;6.28;78.22
68712;BME280;55690;51.566;19.198;2023-03-03T13:26:21;101951.47;;;5.50;79.88
68712;BME280;55690;51.566;19.198;2023-03-03T13:34:01;101946.20;;;5.72;79.42
68712;BME280;55690;51.566;19.198;2023-03-03T13:38:05;101960.62;;;5.71;79.66
68712;BME280;55690;51.566;19.198;2023-03-03T13:42:21;101952.87;;;5.62;79.94
68712;BME280;55690;51.566;19.198;2023-03-03T13:46:33;101941.35;;;6.08;78.83
68712;BME280;55690;51.566;19.198;2023-03-03T13:50:44;101937.30;;;5.96;78.61
68712;BME280;55690;51.566;19.198;2023-03-03T14:16:06;101935.87;;;5.60;80.04
68712;BME280;55690;51.566;19.198;2023-03-03T14:24:23;101938.13;;;5.72;80.04
68712;BME280;55690;51.566;19.198;2023-03-03T14:28:28;101923.50;;;5.79;79.98
68712;BME280;55690;51.566;19.198;2023-03-03T14:32:30;101921.22;;;5.42;80.88
68712;BME280;55690;51.566;19.198;2023-03-03T14:36:37;101923.08;;;5.14;81.95
68712;BME280;55690;51.566;19.198;2023-03-03T14:40:41;101911.77;;;5.29;81.38
68712;BME280;55690;51.566;19.198;2023-03-03T14:44:53;101916.91;;;5.37;81.54
68712;BME280;55690;51.566;19.198;2023-03-03T14:49:04;101906.50;;;5.52;81.26
68712;BME280;55690;51.566;19.198;2023-03-03T15:01:37;101893.91;;;5.53;80.94
68712;BME280;55690;51.566;19.198;2023-03-03T15:05:48;101904.27;;;5.12;81.59
68712;BME280;55690;51.566;19.198;2023-03-03T15:09:51;101908.29;;;4.99;82.83
68712;BME280;55690;51.566;19.198;2023-03-03T15:13:54;101907.30;;;5.01;82.16
68712;BME280;55690;51.566;19.198;2023-03-03T15:18:08;101911.09;;;5.22;82.15
68712;BME280;55690;51.566;19.198;2023-03-03T15:26:38;101903.81;;;5.52;81.28
68712;BME280;55690;51.566;19.198;2023-03-03T15:30:50;101920.48;;;5.37;81.76
68712;BME280;55690;51.566;19.198;2023-03-03T15:39:18;101901.67;;;4.81;82.64
68712;BME280;55690;51.566;19.198;2023-03-03T15:56:14;101904.99;;;5.44;81.08
68712;BME280;55690;51.566;19.198;2023-03-03T16:04:34;101906.29;;;5.06;81.87
68712;BME280;55690;51.566;19.198;2023-03-03T16:08:54;101904.08;;;5.18;81.56
68712;BME280;55690;51.566;19.198;2023-03-03T16:12:59;101898.93;;;5.37;80.34
68712;BME280;55690;51.566;19.198;2023-03-03T16:25:49;101900.64;;;4.85;81.98
68712;BME280;55690;51.566;19.198;2023-03-03T16:42:32;101901.38;;;4.90;81.27
68712;BME280;55690;51.566;19.198;2023-03-03T16:46:40;101919.01;;;5.00;81.78
68712;BME280;55690;51.566;19.198;2023-03-03T16:50:52;101922.54;;;4.75;82.50
68712;BME280;55690;51.566;19.198;2023-03-03T16:54:58;101923.08;;;5.14;81.23
68712;BME280;55690;51.566;19.198;2023-03-03T17:33:50;101903.00;;;4.96;80.02
68712;BME280;55690;51.566;19.198;2023-03-03T17:41:39;101919.44;;;4.59;80.78
68712;BME280;55690;51.566;19.198;2023-03-03T17:45:45;101916.65;;;4.62;81.64
68712;BME280;55690;51.566;19.198;2023-03-03T17:49:58;101911.03;;;4.70;81.16
68712;BME280;55690;51.566;19.198;2023-03-03T18:23:49;101897.91;;;4.59;80.63
68712;BME280;55690;51.566;19.198;2023-03-03T18:40:33;101890.63;;;4.62;80.67
68712;BME280;55690;51.566;19.198;2023-03-03T18:44:35;101891.58;;;4.32;81.61
68712;BME280;55690;51.566;19.198;2023-03-03T18:57:13;101902.90;;;4.12;81.58
68712;BME280;55690;51.566;19.198;2023-03-03T19:05:45;101904.46;;;4.78;79.76
68712;BME280;55690;51.566;19.198;2023-03-03T19:09:49;101890.08;;;4.79;79.68
68712;BME280;55690;51.566;19.198;2023-03-03T19:22:25;101901.44;;;4.61;80.75
68712;BME280;55690;51.566;19.198;2023-03-03T19:26:56;101895.02;;;4.35;81.22
68712;BME280;55690;51.566;19.198;2023-03-03T19:39:19;101870.16;;;4.85;80.32
68712;BME280;55690;51.566;19.198;2023-03-03T19:47:43;101854.63;;;4.66;80.57
68712;BME280;55690;51.566;19.198;2023-03-03T19:51:53;101854.70;;;4.91;79.41
68712;BME280;55690;51.566;19.198;2023-03-03T20:04:35;101840.59;;;4.57;80.88
68712;BME280;55690;51.566;19.198;2023-03-03T20:38:26;101824.54;;;4.54;80.69
68712;BME280;55690;51.566;19.198;2023-03-03T20:42:39;101818.32;;;4.52;80.87
68712;BME280;55690;51.566;19.198;2023-03-03T20:59:32;101801.22;;;4.81;78.93
68712;BME280;55690;51.566;19.198;2023-03-03T21:07:52;101779.15;;;4.71;80.16
68712;BME280;55690;51.566;19.198;2023-03-03T21:11:55;101776.91;;;4.57;80.77
68712;BME280;55690;51.566;19.198;2023-03-03T21:16:02;101779.75;;;4.53;80.54
68712;BME280;55690;51.566;19.198;2023-03-03T21:24:17;101746.14;;;4.66;80.34
68712;BME280;55690;51.566;19.198;2023-03-03T21:28:28;101748.52;;;4.75;80.72
68712;BME280;55690;51.566;19.198;2023-03-03T21:36:46;101719.87;;;4.74;79.93
68712;BME280;55690;51.566;19.198;2023-03-03T21:45:09;101733.21;;;5.27;78.59
68712;BME280;55690;51.566;19.198;2023-03-03T21:49:11;101715.12;;;4.81;80.03
68712;BME280;55690;51.566;19.198;2023-03-03T21:53:12;101716.62;;;4.89;79.65
68712;BME280;55690;51.566;19.198;2023-03-03T21:57:14;101708.42;;;4.67;80.45
68712;BME280;55690;51.566;19.198;2023-03-03T22:01:15;101711.37;;;4.60;80.99
68712;BME280;55690;51.566;19.198;2023-03-03T22:05:17;101716.37;;;4.44;81.49
68712;BME280;55690;51.566;19.198;2023-03-03T22:09:19;101709.91;;;4.50;81.30
68712;BME280;55690;51.566;19.198;2023-03-03T22:13:26;101711.56;;;4.54;81.42
68712;BME280;55690;51.566;19.198;2023-03-03T22:17:28;101709.28;;;4.42;80.90
68712;BME280;55690;51.566;19.198;2023-03-03T22:21:30;101693.88;;;4.47;80.90
68712;BME280;55690;51.566;19.198;2023-03-03T22:25:32;101692.90;;;4.49;80.68
68712;BME280;55690;51.566;19.198;2023-03-03T22:29:33;101682.60;;;4.62;80.30
68712;BME280;55690;51.566;19.198;2023-03-03T22:33:35;101674.44;;;4.90;79.73
68712;BME280;55690;51.566;19.198;2023-03-03T22:37:36;101670.87;;;4.64;80.30
68712;BME280;55690;51.566;19.198;2023-03-03T22:41:37;101663.77;;;4.87;79.68
68712;BME280;55690;51.566;19.198;2023-03-03T22:45:39;101686.63;;;4.75;80.21
68712;BME280;55690;51.566;19.198;2023-03-03T22:49:40;101675.52;;;4.84;80.04
68712;BME280;55690;51.566;19.198;2023-03-03T22:53:42;101684.36;;;4.63;81.43
68712;BME280;55690;51.566;19.198;2023-03-03T22:57:43;101665.27;;;4.71;80.65
68712;BME280;55690;51.566;19.198;2023-03-03T23:01:45;101668.63;;;4.51;81.75
68712;BME280;55690;51.566;19.198;2023-03-03T23:05:47;101660.53;;;4.77;80.91
68712;BME280;55690;51.566;19.198;2023-03-03T23:09:49;101658.88;;;4.22;83.03
68712;BME280;55690;51.566;19.198;2023-03-03T23:13:51;101646.03;;;4.56;82.03
68712;BME280;55690;51.566;19.198;2023-03-03T23:17:52;101649.35;;;4.12;83.41
68712;BME280;55690;51.566;19.198;2023-03-03T23:21:54;101631.20;;;4.45;82.80
68712;BME280;55690;51.566;19.198;2023-03-03T23:25:56;101624.63;;;4.53;82.32
68712;BME280;55690;51.566;19.198;2023-03-03T23:29:57;101615.73;;;4.51;82.84
68712;BME280;55690;51.566;19.198;2023-03-03T23:33:59;101611.05;;;4.81;82.25
68712;BME280;55690;51.566;19.198;2023-03-03T23:38:00;101606.66;;;4.29;83.86
68712;BME280;55690;51.566;19.198;2023-03-03T23:42:01;101597.48;;;4.34;83.76
68712;BME280;55690;51.566;19.198;2023-03-03T23:46:03;101589.95;;;3.93;85.46
68712;BME280;55690;51.566;19.198;2023-03-03T23:50:05;101590.08;;;4.41;84.67
68712;BME280;55690;51.566;19.198;2023-03-03T23:54:07;101601.19;;;4.57;84.98
68712;BME280;55690;51.566;19.198;2023-03-03T23:58:08;101595.97;;;4.27;84.93
